Time;durP1;ratioP1;P1;durP2;ratioP2;P2;SDS_P1;SDS_P2;PMS_P1;PMS_P2;Temp;Humidity;BMP_temperature;BMP_pressure;BME280_temperature;BME280_humidity;BME280_pressure;Samples;Min_cycle;Max_cycle;Signal;HPM_P1;HPM_P2
2021/06/25 00:01:16;;;;;;;3.33;0.80;;;;;;;23.95;45.82;100520.03;5054185;28;20048;-78
2021/06/25 00:04:35;;;;;;;3.00;1.00;;;;;;;23.88;46.05;100519.22;5054780;28;20483;-77
2021/06/25 00:07:40;;;;;;;3.28;1.00;;;;;;;23.90;45.62;100521.72;5061173;28;20387;-77
2021/06/25 00:10:45;;;;;;;6.15;1.10;;;;;;;23.90;45.88;100511.59;5054476;28;20499;-78
2021/06/25 00:13:50;;;;;;;6.20;1.38;;;;;;;23.81;45.97;100518.41;5054646;28;20506;-78
2021/06/25 00:16:55;;;;;;;4.90;1.17;;;;;;;23.82;45.81;100519.25;5054568;28;20044;-77
2021/06/25 00:20:00;;;;;;;7.63;1.10;;;;;;;23.85;45.64;100511.41;5053772;28;20582;-77
2021/06/25 00:23:06;;;;;;;4.13;0.80;;;;;;;23.77;45.88;100502.63;5054685;28;20384;-77
2021/06/25 00:26:11;;;;;;;4.82;1.70;;;;;;;23.62;46.03;100502.03;5054409;28;20060;-77
2021/06/25 00:29:16;;;;;;;4.13;0.77;;;;;;;23.61;46.13;100501.19;5052683;28;20063;-77
2021/06/25 00:32:24;;;;;;;4.68;0.75;;;;;;;23.65;45.81;100502.41;5053893;28;20059;-78
2021/06/25 00:35:29;;;;;;;3.92;0.70;;;;;;;23.70;45.94;100491.66;5053496;28;20377;-77
2021/06/25 00:38:33;;;;;;;1.95;0.80;;;;;;;23.71;45.61;100496.09;5054212;28;20040;-77
2021/06/25 00:41:38;;;;;;;3.38;0.90;;;;;;;23.69;45.64;100497.34;5054219;28;20048;-76
2021/06/25 00:44:43;;;;;;;4.88;0.77;;;;;;;23.68;45.94;100496.50;5054173;28;20052;-77
2021/06/25 00:47:50;;;;;;;3.13;0.82;;;;;;;23.69;45.99;100489.97;5054168;28;20048;-77
2021/06/25 00:50:54;;;;;;;2.42;0.70;;;;;;;23.67;46.36;100483.88;5054105;28;20064;-77
2021/06/25 00:53:59;;;;;;;4.28;1.13;;;;;;;23.60;46.64;100488.53;5054303;28;20063;-77
2021/06/25 00:57:05;;;;;;;1.88;0.60;;;;;;;23.59;46.86;100492.34;5053730;28;20055;-78
2021/06/25 01:00:10;;;;;;;6.13;1.30;;;;;;;23.54;46.84;100494.88;5053988;28;20056;-77
2021/06/25 01:03:16;;;;;;;2.97;0.80;;;;;;;23.53;47.40;100486.88;5053934;28;20052;-77
2021/06/25 01:06:20;;;;;;;2.90;0.90;;;;;;;23.53;47.17;100490.44;5053085;28;20055;-78
2021/06/25 01:09:27;;;;;;;1.80;0.80;;;;;;;23.52;47.53;100485.19;5053272;28;20056;-77
2021/06/25 01:12:32;;;;;;;2.58;0.80;;;;;;;23.53;47.46;100490.44;5053858;28;20052;-76
2021/06/25 01:15:37;;;;;;;4.20;1.33;;;;;;;23.48;47.60;100490.25;5056047;28;20586;-77
2021/06/25 01:18:42;;;;;;;4.47;0.80;;;;;;;23.41;47.70;100483.94;5058003;28;20124;-77
2021/06/25 01:21:47;;;;;;;4.53;0.80;;;;;;;23.28;47.90;100473.81;5057963;28;20056;-77
2021/06/25 01:24:51;;;;;;;3.78;0.93;;;;;;;23.24;48.06;100478.06;5058096;28;20048;-77
2021/06/25 01:28:03;;;;;;;4.85;1.17;;;;;;;23.21;47.97;100472.16;5057886;28;20052;-76
2021/06/25 01:31:08;;;;;;;4.15;0.88;;;;;;;23.12;48.41;100466.06;5057748;28;20068;-77
2021/06/25 01:34:13;;;;;;;4.40;1.02;;;;;;;23.07;48.71;100459.53;5056919;28;20392;-78
2021/06/25 01:37:18;;;;;;;5.03;0.85;;;;;;;23.03;48.85;100452.81;5057864;28;20064;-76
2021/06/25 01:40:24;;;;;;;4.97;0.88;;;;;;;23.02;48.86;100459.34;5057554;28;20048;-76
2021/06/25 01:43:31;;;;;;;3.92;1.38;;;;;;;22.87;49.34;100454.09;5057510;28;20048;-77
2021/06/25 01:46:35;;;;;;;4.78;0.90;;;;;;;22.83;49.67;100454.72;5057427;28;20048;-77
2021/06/25 01:49:40;;;;;;;3.40;0.90;;;;;;;22.70;49.93;100458.31;5057311;28;20048;-78
2021/06/25 01:52:54;;;;;;;5.65;1.10;;;;;;;22.55;50.21;100457.63;5057302;28;20048;-77
2021/06/25 01:56:01;;;;;;;3.03;0.80;;;;;;;22.40;50.53;100448.78;5052882;28;20120;-77
2021/06/25 01:59:06;;;;;;;5.47;0.93;;;;;;;22.29;50.90;100458.47;5055721;28;20048;-77
2021/06/25 02:02:11;;;;;;;9.65;1.00;;;;;;;22.17;51.09;100451.91;5056303;28;20055;-78
2021/06/25 02:05:16;;;;;;;8.70;1.00;;;;;;;21.98;51.78;100447.22;5056608;28;20048;-77
2021/06/25 02:08:21;;;;;;;4.47;0.95;;;;;;;21.81;52.55;100444.00;5056448;28;20052;-78
2021/06/25 02:11:26;;;;;;;3.88;1.20;;;;;;;21.73;52.07;100443.31;5055318;28;20056;-78
2021/06/25 02:14:31;;;;;;;2.28;0.80;;;;;;;21.66;52.03;100442.47;5055107;28;20059;-77
2021/06/25 02:17:36;;;;;;;39.85;2.08;;;;;;;21.68;52.26;100452.13;5054232;28;20044;-79
2021/06/25 02:20:41;;;;;;;4.53;1.30;;;;;;;21.48;52.75;100451.19;5055112;28;20072;-76
2021/06/25 02:23:46;;;;;;;6.50;1.15;;;;;;;21.34;52.73;100444.00;5054226;28;20052;-77
2021/06/25 02:26:51;;;;;;;8.18;0.95;;;;;;;21.25;52.68;100454.25;5056343;28;20047;-77
2021/06/25 02:29:56;;;;;;;5.50;0.98;;;;;;;21.19;52.42;100448.72;5056611;28;20115;-78
2021/06/25 02:33:01;;;;;;;2.63;0.90;;;;;;;21.21;52.01;100443.91;5056209;28;20048;-77
2021/06/25 02:36:05;;;;;;;4.13;1.58;;;;;;;21.30;52.31;100453.66;5056557;28;20052;-78
2021/06/25 02:39:10;;;;;;;4.28;0.90;;;;;;;21.19;51.50;100438.66;5056510;28;20052;-78
2021/06/25 02:42:15;;;;;;;3.60;0.80;;;;;;;21.27;51.23;100443.97;5056432;28;20052;-78
2021/06/25 02:45:19;;;;;;;3.35;0.90;;;;;;;21.38;51.76;100445.25;5056415;28;20068;-77
2021/06/25 02:48:24;;;;;;;4.20;1.13;;;;;;;21.42;51.09;100438.38;5056224;28;20044;-77
2021/06/25 02:51:29;;;;;;;2.00;0.70;;;;;;;21.51;50.79;100418.03;5056510;28;20048;-77
2021/06/25 02:54:36;;;;;;;10.07;1.15;;;;;;;21.48;50.89;100434.81;5056196;28;20392;-76
2021/06/25 02:57:41;;;;;;;2.80;0.85;;;;;;;21.57;50.67;100432.75;5055592;28;20071;-77
2021/06/25 03:00:49;;;;;;;11.35;1.23;;;;;;;21.47;49.67;100424.94;5056057;28;20047;-78
2021/06/25 03:03:54;;;;;;;4.07;1.13;;;;;;;21.30;49.01;100435.38;5055846;28;20064;-77
2021/06/25 03:06:59;;;;;;;2.92;0.88;;;;;;;21.29;48.50;100428.22;5055079;28;20040;-76
2021/06/25 03:10:06;;;;;;;4.40;1.13;;;;;;;21.36;48.60;100429.09;5055779;28;20471;-78
2021/06/25 03:13:10;;;;;;;3.72;0.80;;;;;;;21.17;48.28;100418.06;5055731;28;20056;-77
2021/06/25 03:16:15;;;;;;;5.95;1.05;;;;;;;21.15;48.29;100417.44;5054603;28;20048;-77
2021/06/25 03:19:21;;;;;;;4.22;0.85;;;;;;;21.27;48.41;100415.81;5036062;28;20056;-77
2021/06/25 03:22:26;;;;;;;3.65;1.17;;;;;;;21.14;48.96;100423.91;5035486;28;20052;-77
2021/06/25 03:25:31;;;;;;;7.43;0.80;;;;;;;21.16;49.35;100424.56;5035458;28;20057;-77
2021/06/25 03:28:36;;;;;;;4.50;1.30;;;;;;;21.09;50.09;100438.19;5035536;28;20044;-78
2021/06/25 03:31:40;;;;;;;3.78;1.00;;;;;;;21.07;49.91;100432.09;5035615;28;20056;-77
2021/06/25 03:34:45;;;;;;;3.53;1.15;;;;;;;21.17;49.66;100442.63;5034738;28;20384;-77
2021/06/25 03:37:50;;;;;;;6.40;1.48;;;;;;;21.26;50.02;100442.28;5035246;28;20060;-77
2021/06/25 03:40:55;;;;;;;6.85;1.20;;;;;;;21.38;49.99;100448.00;5034880;28;20072;-77
2021/06/25 03:44:00;;;;;;;3.88;1.10;;;;;;;21.35;49.93;100446.53;5035081;28;20048;-76
2021/06/25 03:47:04;;;;;;;5.07;1.08;;;;;;;21.47;50.02;100448.69;5035534;28;20053;-77
2021/06/25 03:50:12;;;;;;;6.10;1.15;;;;;;;21.55;50.57;100452.09;5035162;28;20492;-76
2021/06/25 03:53:16;;;;;;;4.97;1.50;;;;;;;21.63;50.78;100440.13;5034871;28;20491;-77
2021/06/25 03:56:21;;;;;;;2.40;0.98;;;;;;;21.77;50.93;100444.63;5035155;28;20057;-76
2021/06/25 03:59:26;;;;;;;7.00;1.27;;;;;;;21.77;51.73;100444.63;5035265;28;20056;-77
2021/06/25 04:02:30;;;;;;;5.63;1.13;;;;;;;21.97;52.02;100448.28;5034755;28;20052;-76
2021/06/25 04:05:35;;;;;;;8.07;1.10;;;;;;;22.10;50.20;100458.44;5043252;28;20048;-77
2021/06/25 04:08:40;;;;;;;5.03;0.90;;;;;;;22.46;50.13;100461.63;5053923;28;20056;-77
2021/06/25 04:11:45;;;;;;;7.80;1.20;;;;;;;22.69;49.07;100462.09;5054716;28;20380;-77
2021/06/25 04:14:50;;;;;;;9.55;1.40;;;;;;;22.76;48.26;100462.09;5054672;28;20400;-77
2021/06/25 04:17:56;;;;;;;10.60;1.73;;;;;;;22.96;48.13;100468.41;5054555;28;20384;-77
2021/06/25 04:21:01;;;;;;;6.05;1.17;;;;;;;22.93;48.03;100469.69;5054550;28;20412;-77
2021/06/25 04:24:06;;;;;;;7.22;1.50;;;;;;;23.06;47.87;100468.84;5053574;28;20040;-79
2021/06/25 04:27:11;;;;;;;6.68;1.30;;;;;;;23.31;48.47;100461.59;5054449;28;20052;-77
2021/06/25 04:30:16;;;;;;;8.80;1.00;;;;;;;23.59;47.74;100462.19;5054145;28;20531;-78
2021/06/25 04:33:21;;;;;;;9.10;2.15;;;;;;;23.78;47.80;100454.94;5053824;28;20487;-78
2021/06/25 04:36:26;;;;;;;4.60;2.13;;;;;;;24.13;46.81;100453.53;5054306;28;20044;-78
2021/06/25 04:39:31;;;;;;;8.02;1.92;;;;;;;24.47;45.93;100457.72;5053956;28;20059;-78
2021/06/25 04:42:36;;;;;;;7.57;0.93;;;;;;;25.09;44.84;100463.13;5052003;28;20511;-77
2021/06/25 04:45:41;;;;;;;4.10;0.95;;;;;;;25.42;45.07;100465.56;5054132;28;20044;-78
2021/06/25 04:48:47;;;;;;;7.40;1.20;;;;;;;26.30;43.19;100461.28;5053568;28;20052;-77
2021/06/25 04:51:51;;;;;;;8.55;1.50;;;;;;;27.01;41.75;100457.63;5054074;28;20076;-77
2021/06/25 04:54:57;;;;;;;4.68;0.98;;;;;;;27.67;40.65;100451.72;5053751;28;20056;-79
2021/06/25 04:58:02;;;;;;;6.13;1.02;;;;;;;28.12;39.27;100455.41;5053735;28;20059;-77
2021/06/25 05:01:07;;;;;;;7.00;1.33;;;;;;;28.52;38.51;100454.47;5053322;28;20060;-78
2021/06/25 05:04:12;;;;;;;21.48;15.15;;;;;;;28.51;38.55;100459.19;5053968;28;20056;-80
2021/06/25 05:07:18;;;;;;;10.02;4.45;;;;;;;28.18;39.09;100461.88;5053353;28;20037;-77
2021/06/25 05:10:22;;;;;;;7.93;1.02;;;;;;;28.16;38.72;100464.03;5045029;28;20060;-78
2021/06/25 05:13:27;;;;;;;7.75;1.10;;;;;;;29.02;37.23;100464.50;5051541;28;20052;-78
2021/06/25 05:16:31;;;;;;;7.35;1.00;;;;;;;29.28;36.20;100459.41;5052383;28;20052;-78
2021/06/25 05:19:36;;;;;;;4.22;1.10;;;;;;;29.70;35.57;100468.00;5033442;28;20053;-78
2021/06/25 05:22:41;;;;;;;5.50;1.00;;;;;;;31.02;33.76;100476.66;5033578;28;20056;-78
2021/06/25 05:25:47;;;;;;;8.02;1.40;;;;;;;32.14;32.22;100464.03;5032265;28;20057;-78
2021/06/25 05:28:53;;;;;;;5.88;1.48;;;;;;;33.06;31.32;100476.94;5031175;28;20338;-78
2021/06/25 05:31:59;;;;;;;9.23;1.08;;;;;;;34.68;29.38;100466.06;5030969;28;20049;-79
2021/06/25 05:35:04;;;;;;;4.10;1.00;;;;;;;35.60;27.94;100458.53;5031357;28;20052;-78
2021/06/25 05:38:14;;;;;;;5.60;1.08;;;;;;;36.85;25.95;100460.69;5044313;28;20052;-78
2021/06/25 05:41:18;;;;;;;4.07;1.15;;;;;;;36.77;26.00;100466.97;5051762;28;20503;-79
2021/06/25 05:44:23;;;;;;;4.45;1.13;;;;;;;37.46;26.34;100461.28;5052519;28;20052;-77
2021/06/25 05:47:28;;;;;;;8.60;1.33;;;;;;;38.99;23.98;100452.81;5052348;28;20068;-80
2021/06/25 05:50:34;;;;;;;8.70;1.30;;;;;;;39.10;24.36;100458.16;5053234;28;20519;-78
2021/06/25 05:53:39;;;;;;;7.30;1.30;;;;;;;39.88;23.35;100472.28;5052447;28;20048;-79
2021/06/25 05:56:44;;;;;;;6.57;1.63;;;;;;;41.00;21.96;100462.00;5050781;28;20056;-78
2021/06/25 05:59:48;;;;;;;9.20;1.30;;;;;;;42.25;21.42;100466.97;5053447;28;20052;-79
2021/06/25 06:02:53;;;;;;;5.47;1.70;;;;;;;42.21;20.81;100460.38;5054033;28;20048;-79
2021/06/25 06:06:01;;;;;;;9.93;1.77;;;;;;;44.36;19.29;100470.16;5056996;28;20052;-78
2021/06/25 06:09:06;;;;;;;6.82;1.60;;;;;;;43.90;19.34;100475.13;5056955;28;20048;-77
2021/06/25 06:12:11;;;;;;;3.72;1.40;;;;;;;45.01;18.89;100475.38;5038717;28;20049;-79
2021/06/25 06:15:17;;;;;;;6.25;1.40;;;;;;;45.41;18.36;100480.19;5054440;28;20052;-79
2021/06/25 06:18:29;;;;;;;4.97;1.50;;;;;;;46.77;17.13;100469.69;5055276;28;20052;-80
2021/06/25 06:31:54;;;;;;;5.95;1.20;;;;;;;44.89;19.06;100480.31;5049279;28;20052;-79
2021/06/25 06:35:00;;;;;;;6.40;1.60;;;;;;;43.86;20.18;100479.88;5035470;28;20052;-80
2021/06/25 06:38:06;;;;;;;6.03;1.67;;;;;;;42.21;21.25;100476.50;5035993;28;20056;-81
2021/06/25 06:41:10;;;;;;;6.10;1.50;;;;;;;40.07;22.95;100477.69;5059818;28;20056;-79
2021/06/25 06:44:15;;;;;;;6.78;1.80;;;;;;;41.83;22.68;100473.69;5056009;28;20048;-80
2021/06/25 06:47:20;;;;;;;6.63;1.58;;;;;;;43.02;20.63;100468.34;5055522;28;20048;-79
2021/06/25 06:50:25;;;;;;;8.10;1.90;;;;;;;42.83;21.21;100465.22;5055341;28;20155;-79
2021/06/25 06:53:29;;;;;;;6.55;1.40;;;;;;;43.98;19.81;100462.88;5055298;28;20048;-81
2021/06/25 06:56:34;;;;;;;5.22;1.30;;;;;;;44.20;19.35;100470.06;5054492;28;20048;-80
2021/06/25 06:59:39;;;;;;;5.70;1.30;;;;;;;45.62;18.47;100463.72;5055213;28;20052;-80
2021/06/25 07:02:44;;;;;;;5.20;1.60;;;;;;;46.94;17.34;100457.88;5054778;28;20048;-81
2021/06/25 07:05:49;;;;;;;5.65;1.20;;;;;;;46.81;18.16;100462.09;5035327;28;20057;-80
2021/06/25 07:08:55;;;;;;;6.63;1.52;;;;;;;47.79;16.96;100459.47;5035212;28;20048;-80
2021/06/25 07:11:59;;;;;;;5.70;1.52;;;;;;;47.22;17.35;100469.81;5056396;28;20056;-80
2021/06/25 07:15:05;;;;;;;8.13;1.50;;;;;;;47.03;17.56;100462.16;5035171;28;20369;-79
2021/06/25 07:18:10;;;;;;;5.88;1.20;;;;;;;47.98;16.50;100456.53;5034928;28;20464;-81
2021/06/25 07:21:18;;;;;;;7.30;1.70;;;;;;;48.59;16.53;100464.81;5035056;28;20048;-82
2021/06/25 07:24:23;;;;;;;4.93;1.20;;;;;;;49.00;16.20;100457.97;5035469;28;20492;-82
2021/06/25 07:27:28;;;;;;;4.75;1.50;;;;;;;48.07;16.73;100459.94;5035039;28;20057;-81
2021/06/25 07:30:33;;;;;;;6.47;1.60;;;;;;;48.46;16.04;100463.38;5034887;28;20076;-81
2021/06/25 07:33:38;;;;;;;5.57;1.60;;;;;;;45.44;17.93;100451.88;5034407;28;20060;-81
2021/06/25 07:36:43;;;;;;;6.43;1.35;;;;;;;45.58;18.58;100452.25;5034795;28;20060;-80
2021/06/25 07:39:47;;;;;;;6.53;1.55;;;;;;;47.18;16.46;100451.06;5034920;28;20090;-81
2021/06/25 07:42:52;;;;;;;8.32;1.63;;;;;;;48.58;15.79;100446.03;5034722;28;20048;-81
2021/06/25 07:45:57;;;;;;;8.27;1.48;;;;;;;50.70;15.04;100451.63;5033388;28;20052;-81
2021/06/25 07:49:03;;;;;;;7.35;1.63;;;;;;;49.65;15.37;100448.88;5034691;28;20112;-81
2021/06/25 07:52:08;;;;;;;5.93;1.38;;;;;;;47.79;16.37;100448.06;5034374;28;20070;-80
2021/06/25 07:55:15;;;;;;;12.43;1.45;;;;;;;48.30;16.28;100438.75;5034304;28;20064;-80
2021/06/25 07:58:20;;;;;;;4.57;1.27;;;;;;;48.14;16.02;100440.94;5034526;28;20053;-82
2021/06/25 08:01:25;;;;;;;3.80;1.38;;;;;;;49.76;15.26;100439.16;5034356;28;20055;-81
2021/06/25 08:04:31;;;;;;;6.40;1.35;;;;;;;46.35;17.51;100444.03;5053527;28;20472;-81
2021/06/25 08:07:36;;;;;;;7.50;1.30;;;;;;;42.28;20.45;100443.72;5050846;28;20396;-80
2021/06/25 08:10:42;;;;;;;8.90;1.55;;;;;;;38.82;24.05;100449.88;5053771;28;20048;-80
2021/06/25 08:13:46;;;;;;;5.15;1.55;;;;;;;37.46;25.45;100449.25;5052949;28;20515;-80
2021/06/25 08:16:51;;;;;;;9.23;1.33;;;;;;;38.15;24.74;100442.47;5053828;28;20040;-82
2021/06/25 08:19:56;;;;;;;9.50;1.25;;;;;;;37.42;26.07;100440.66;5053607;28;20056;-81
2021/06/25 08:23:01;;;;;;;4.07;1.17;;;;;;;36.63;26.50;100441.75;5053692;28;20503;-82
2021/06/25 08:26:05;;;;;;;10.73;1.30;;;;;;;35.33;27.92;100439.53;5053123;28;20412;-81
2021/06/25 08:29:10;;;;;;;10.57;1.60;;;;;;;35.28;28.43;100447.97;5052694;28;20045;-81
2021/06/25 08:32:14;;;;;;;8.95;1.60;;;;;;;34.87;28.80;100430.72;5053583;28;20079;-81
2021/06/25 08:35:21;;;;;;;4.57;1.30;;;;;;;33.70;30.46;100434.53;5053419;28;20404;-81
2021/06/25 08:38:25;;;;;;;5.38;1.30;;;;;;;33.84;30.52;100428.06;5053604;28;20056;-81
2021/06/25 08:41:33;;;;;;;6.35;1.20;;;;;;;33.09;31.40;100426.31;5053375;28;20400;-81
2021/06/25 08:44:40;;;;;;;11.57;1.55;;;;;;;32.65;31.92;100417.69;5076135;28;20048;-79
2021/06/25 08:47:47;;;;;;;7.97;1.38;;;;;;;32.46;31.55;100418.50;5035709;28;20112;-80
2021/06/25 08:50:56;;;;;;;7.13;1.08;;;;;;;32.49;32.13;100418.75;5033221;28;20072;-80
2021/06/25 08:54:01;;;;;;;7.18;1.35;;;;;;;33.08;31.43;100424.66;5045490;28;20506;-80
2021/06/25 08:57:08;;;;;;;4.05;1.13;;;;;;;33.53;30.88;100414.53;5033325;28;20048;-80
2021/06/25 09:00:16;;;;;;;4.00;1.13;;;;;;;34.00;30.64;100412.06;5033029;28;20064;-81
2021/06/25 09:03:23;;;;;;;3.80;0.93;;;;;;;34.39;30.16;100414.94;5048950;28;20052;-80
2021/06/25 09:06:28;;;;;;;3.45;1.02;;;;;;;33.99;30.13;100418.78;5052889;28;20044;-80
2021/06/25 09:09:44;;;;;;;8.65;1.00;;;;;;;33.61;30.71;100411.16;5053080;28;20064;-79
2021/06/25 09:13:14;;;;;;;5.50;1.20;;;;;;;33.15;31.26;100407.66;5051798;28;20388;-79
2021/06/25 09:16:25;;;;;;;8.30;1.20;;;;;;;33.51;30.63;100409.22;5053158;28;20044;-80
2021/06/25 09:19:40;;;;;;;7.82;1.05;;;;;;;33.27;31.61;100406.25;5052749;28;20040;-79
2021/06/25 09:22:49;;;;;;;4.18;0.98;;;;;;;32.55;32.35;100414.06;5052952;28;20479;-80
2021/06/25 09:26:10;;;;;;;7.30;1.10;;;;;;;31.88;33.21;100414.16;5037515;28;20041;-78
2021/06/25 09:29:19;;;;;;;4.20;0.93;;;;;;;32.19;33.38;100406.78;5032173;28;20072;-81
2021/06/25 09:32:36;;;;;;;3.97;0.93;;;;;;;32.41;33.21;100397.09;5032851;28;20060;-80
2021/06/25 09:35:40;;;;;;;7.20;1.00;;;;;;;32.68;32.76;100400.47;5033673;28;20044;-79
2021/06/25 09:38:46;;;;;;;3.03;0.80;;;;;;;33.02;32.32;100402.63;5036977;28;20053;-77
2021/06/25 09:41:50;;;;;;;6.97;1.15;;;;;;;33.01;32.67;100396.25;5058989;28;20072;-80
2021/06/25 09:45:00;;;;;;;6.07;0.90;;;;;;;32.67;32.09;100396.00;5036749;28;20491;-81
2021/06/25 09:48:06;;;;;;;6.22;1.05;;;;;;;32.87;32.92;100395.16;5036336;28;20519;-80
2021/06/25 09:51:12;;;;;;;3.75;1.10;;;;;;;32.97;31.48;100384.03;5048477;28;20072;-81
2021/06/25 09:54:17;;;;;;;6.25;1.00;;;;;;;32.75;31.66;100381.56;5054661;28;20052;-79
2021/06/25 09:57:26;;;;;;;4.80;1.15;;;;;;;32.73;31.07;100381.00;5035504;28;20049;-79
2021/06/25 10:04:37;;;;;;;6.20;1.00;;;;;;;32.59;31.47;100371.53;5036673;28;20048;-79
2021/06/25 10:07:42;;;;;;;6.13;0.95;;;;;;;32.77;32.32;100370.13;5036107;28;20056;-79
2021/06/25 10:10:47;;;;;;;2.88;0.82;;;;;;;32.84;31.68;100372.66;5035444;28;20052;-79
2021/06/25 10:13:56;;;;;;;4.43;0.70;;;;;;;32.66;31.38;100366.56;5036043;28;20076;-78
2021/06/25 10:17:04;;;;;;;4.28;0.68;;;;;;;32.95;30.93;100361.22;5036001;28;20068;-78
2021/06/25 10:20:11;;;;;;;4.78;1.05;;;;;;;32.80;30.73;100366.81;5040369;28;20506;-78
2021/06/25 10:23:16;;;;;;;3.72;0.80;;;;;;;33.21;30.51;100351.72;5040266;28;20400;-78
2021/06/25 10:26:23;;;;;;;9.57;1.10;;;;;;;33.32;30.03;100360.84;5043183;28;20049;-78
2021/06/25 10:29:31;;;;;;;4.78;0.90;;;;;;;33.34;29.91;100355.84;5057650;28;20064;-80
2021/06/25 10:32:39;;;;;;;5.70;1.20;;;;;;;33.58;29.72;100361.63;5034844;28;20053;-79
2021/06/25 10:35:45;;;;;;;6.15;1.00;;;;;;;33.95;28.78;100362.78;5035048;28;20056;-79
2021/06/25 10:38:49;;;;;;;3.83;0.70;;;;;;;34.32;27.48;100365.06;5035897;28;20048;-79
2021/06/25 10:41:56;;;;;;;7.03;1.08;;;;;;;34.45;27.54;100366.34;5035277;28;20124;-79
2021/06/25 10:45:00;;;;;;;2.33;0.50;;;;;;;34.05;27.82;100355.53;5035462;28;20053;-79
2021/06/25 10:48:06;;;;;;;4.35;0.80;;;;;;;33.90;28.51;100364.78;5031610;28;20850;-78
2021/06/25 10:51:35;;;;;;;5.45;0.98;;;;;;;33.11;28.33;100360.09;5044103;28;20455;-78
2021/06/25 10:55:04;;;;;;;3.17;0.90;;;;;;;32.95;29.25;100349.25;5032998;28;20468;-77
2021/06/25 10:58:09;;;;;;;3.20;0.85;;;;;;;33.38;28.43;100343.03;5032102;28;20048;-80
2021/06/25 11:01:13;;;;;;;4.55;0.80;;;;;;;33.29;27.44;100347.50;5032375;28;20048;-79
2021/06/25 11:04:44;;;;;;;4.97;0.82;;;;;;;33.60;26.83;100349.09;5034611;28;20072;-79
2021/06/25 11:07:49;;;;;;;6.63;1.20;;;;;;;33.45;27.01;100337.16;5044345;28;20056;-78
2021/06/25 11:10:57;;;;;;;3.00;0.60;;;;;;;33.40;27.71;100329.66;5050734;28;20075;-78
2021/06/25 11:14:01;;;;;;;3.67;0.82;;;;;;;32.91;27.90;100329.53;5051447;28;20052;-79
2021/06/25 11:17:05;;;;;;;4.13;1.02;;;;;;;32.57;28.49;100334.84;5051254;28;20040;-80
2021/06/25 11:20:35;;;;;;;4.47;0.70;;;;;;;32.66;28.55;100338.75;5051361;28;20408;-80
2021/06/25 11:23:40;;;;;;;4.78;1.10;;;;;;;32.83;28.41;100305.06;5051972;28;20495;-79
2021/06/25 11:26:57;;;;;;;3.67;0.60;;;;;;;32.48;28.44;100327.31;5052690;28;20043;-80
2021/06/25 11:30:01;;;;;;;4.10;1.08;;;;;;;32.60;28.95;100317.63;5052489;28;20048;-80
2021/06/25 11:33:25;;;;;;;4.85;0.90;;;;;;;32.88;28.94;100326.47;5052249;28;20048;-80
2021/06/25 11:36:41;;;;;;;3.17;0.98;;;;;;;33.07;28.49;100322.81;5052209;28;20064;-79
2021/06/25 11:39:50;;;;;;;5.05;1.23;;;;;;;32.94;26.97;100316.97;5055034;28;20044;-78
2021/06/25 11:42:55;;;;;;;2.80;0.73;;;;;;;32.74;26.54;100320.63;5054917;28;20048;-79
2021/06/25 11:46:00;;;;;;;3.38;0.60;;;;;;;32.71;27.59;100315.66;5054893;28;20055;-79
2021/06/25 11:49:04;;;;;;;2.45;0.80;;;;;;;32.88;28.76;100321.75;5054021;28;20108;-79
2021/06/25 11:52:14;;;;;;;4.70;0.85;;;;;;;33.08;28.86;100329.22;5054492;28;20060;-79
2021/06/25 11:55:22;;;;;;;2.72;0.70;;;;;;;32.96;29.08;100323.13;5054807;28;20393;-79
2021/06/25 11:58:27;;;;;;;5.43;0.77;;;;;;;33.05;28.28;100324.22;5054283;28;20048;-80
2021/06/25 12:01:33;;;;;;;2.50;0.82;;;;;;;33.08;27.91;100315.31;5054614;28;20044;-80
2021/06/25 12:04:42;;;;;;;5.03;0.80;;;;;;;32.52;28.20;100315.41;5054494;28;20377;-80
2021/06/25 12:08:06;;;;;;;4.38;0.70;;;;;;;32.45;28.27;100314.81;5053646;28;20052;-80
2021/06/25 12:11:11;;;;;;;3.88;1.15;;;;;;;32.36;28.80;100313.72;5054267;28;20067;-80
2021/06/25 12:14:15;;;;;;;4.13;0.85;;;;;;;32.17;28.55;100318.19;5050813;28;20056;-78
2021/06/25 12:17:20;;;;;;;2.78;0.70;;;;;;;32.33;28.22;100305.94;5047488;28;20495;-80
2021/06/25 12:20:26;;;;;;;2.28;0.52;;;;;;;32.54;27.61;100313.16;5053284;28;20048;-79
2021/06/25 12:23:31;;;;;;;2.08;0.73;;;;;;;32.75;28.11;100303.69;5041872;28;20408;-80
2021/06/25 12:26:36;;;;;;;4.32;0.90;;;;;;;32.79;28.32;100298.38;5034451;28;20104;-79
2021/06/25 12:29:40;;;;;;;2.28;0.70;;;;;;;32.88;28.33;100293.09;5062556;28;20404;-79
2021/06/25 12:32:45;;;;;;;2.40;0.70;;;;;;;32.85;28.20;100290.88;5033605;28;20056;-80
2021/06/25 12:35:55;;;;;;;2.53;0.65;;;;;;;33.08;27.82;100285.56;5034149;28;20052;-79
2021/06/25 12:39:05;;;;;;;1.85;0.50;;;;;;;33.17;27.53;100283.84;5033288;28;20073;-81
2021/06/25 12:42:11;;;;;;;4.55;1.02;;;;;;;32.92;27.22;100281.13;5033168;28;20394;-79
2021/06/25 12:45:15;;;;;;;3.05;0.75;;;;;;;32.37;27.62;100276.47;5032521;28;20057;-81
2021/06/25 12:48:23;;;;;;;6.68;0.95;;;;;;;32.20;27.69;100283.41;5033538;28;20048;-80
2021/06/25 12:51:36;;;;;;;2.63;0.60;;;;;;;32.20;28.02;100267.59;5045634;28;20048;-82
2021/06/25 12:54:43;;;;;;;4.60;0.98;;;;;;;32.40;28.89;100275.06;5052618;28;20048;-79
2021/06/25 12:57:50;;;;;;;4.30;0.75;;;;;;;32.55;28.66;100278.72;5053109;28;20487;-79
2021/06/25 13:01:00;;;;;;;3.25;0.60;;;;;;;32.62;28.89;100270.91;5051510;28;20056;-80
2021/06/25 13:04:19;;;;;;;4.43;0.77;;;;;;;32.79;28.13;100267.78;5052975;28;20048;-80
2021/06/25 13:07:23;;;;;;;5.65;0.80;;;;;;;32.95;28.20;100265.81;5052611;28;20055;-82
2021/06/25 13:10:28;;;;;;;3.42;0.80;;;;;;;33.02;28.18;100267.16;5051906;28;20400;-81
2021/06/25 13:13:35;;;;;;;3.70;0.70;;;;;;;32.44;28.02;100265.88;5053270;28;20075;-79
2021/06/25 13:16:41;;;;;;;3.40;0.90;;;;;;;32.24;28.42;100265.94;5052220;28;20044;-80
2021/06/25 13:19:50;;;;;;;3.08;0.68;;;;;;;32.20;28.31;100256.47;5051343;28;20048;-80
2021/06/25 13:23:09;;;;;;;3.72;0.80;;;;;;;32.23;28.94;100261.47;5051763;28;20068;-80
2021/06/25 13:26:22;;;;;;;4.10;0.60;;;;;;;32.36;27.75;100265.66;5051248;28;20535;-80
2021/06/25 13:29:47;;;;;;;4.57;0.82;;;;;;;32.40;27.88;100264.81;5032996;28;20057;-80
2021/06/25 13:33:00;;;;;;;3.50;0.80;;;;;;;32.27;27.93;100261.78;5032969;28;20563;-80
2021/06/25 13:36:08;;;;;;;5.03;1.17;;;;;;;32.36;28.32;100258.16;5044248;28;20499;-80
2021/06/25 13:39:12;;;;;;;5.32;1.35;;;;;;;32.49;27.91;100265.88;5051216;28;20045;-79
2021/06/25 13:42:18;;;;;;;4.35;0.90;;;;;;;32.34;28.00;100252.03;5052544;28;20048;-80
2021/06/25 13:45:24;;;;;;;1.33;0.60;;;;;;;31.92;28.51;100260.63;5051862;28;20507;-80
2021/06/25 13:48:28;;;;;;;3.40;0.55;;;;;;;32.06;27.93;100256.22;5040621;28;20052;-80
2021/06/25 13:51:34;;;;;;;2.75;0.80;;;;;;;32.23;27.55;100261.47;5052709;28;20391;-80
2021/06/25 13:54:39;;;;;;;3.13;1.00;;;;;;;32.42;28.16;100243.13;5051616;28;20041;-81
2021/06/25 13:58:04;;;;;;;2.67;0.70;;;;;;;32.30;27.94;100256.47;5052078;28;20048;-80
2021/06/25 14:01:18;;;;;;;5.40;1.35;;;;;;;31.74;30.73;100243.66;5052293;28;20060;-81
2021/06/25 14:04:23;;;;;;;4.72;0.88;;;;;;;31.84;29.72;100243.69;5054655;28;20040;-81
2021/06/25 14:07:28;;;;;;;5.97;1.20;;;;;;;31.51;30.81;100245.84;5052284;28;20052;-80
2021/06/25 14:10:34;;;;;;;5.65;1.00;;;;;;;31.31;31.11;100248.53;5051855;28;20048;-81
2021/06/25 14:13:42;;;;;;;4.07;0.80;;;;;;;31.15;31.47;100244.06;5052564;28;20068;-81
2021/06/25 14:16:58;;;;;;;2.72;0.85;;;;;;;31.05;31.67;100244.03;5051180;28;20040;-82
2021/06/25 14:20:05;;;;;;;5.85;1.00;;;;;;;31.01;31.92;100240.09;5051336;28;20052;-81
2021/06/25 14:23:10;;;;;;;4.85;0.90;;;;;;;30.96;31.77;100225.41;5054959;28;20068;-80
2021/06/25 14:26:15;;;;;;;5.30;1.23;;;;;;;30.80;32.73;100225.31;5055995;28;20056;-82
2021/06/25 14:29:22;;;;;;;5.10;1.20;;;;;;;31.13;32.87;100237.97;5055520;28;20499;-83
2021/06/25 14:32:26;;;;;;;5.68;0.80;;;;;;;31.04;31.60;100236.81;5055553;28;20064;-81
2021/06/25 14:35:30;;;;;;;4.75;0.80;;;;;;;31.01;32.84;100229.03;5055095;28;20152;-82
2021/06/25 14:38:36;;;;;;;4.13;0.90;;;;;;;31.13;31.48;100226.88;5054678;28;20132;-81
2021/06/25 14:41:40;;;;;;;4.22;0.88;;;;;;;30.87;31.21;100213.97;5054706;28;20056;-83